sensor_id;sensor_type;location;lat;lon;timestamp;temperature;humidity
23769;DHT22;12064;50.890;5.424;2023-03-13T00:04:01;16.60;81.60
23769;DHT22;12064;50.890;5.424;2023-03-13T00:12:52;16.60;81.70
23769;DHT22;12064;50.890;5.424;2023-03-13T00:21:42;16.60;81.80
23769;DHT22;12064;50.890;5.424;2023-03-13T00:30:33;16.60;81.90
23769;DHT22;12064;50.890;5.424;2023-03-13T00:39:24;16.60;82.10
23769;DHT22;12064;50.890;5.424;2023-03-13T00:48:14;16.60;82.20
23769;DHT22;12064;50.890;5.424;2023-03-13T00:57:05;16.60;82.20
23769;DHT22;12064;50.890;5.424;2023-03-13T01:06:01;16.60;82.30
23769;DHT22;12064;50.890;5.424;2023-03-13T01:14:52;16.60;82.50
23769;DHT22;12064;50.890;5.424;2023-03-13T01:23:43;16.60;82.30
23769;DHT22;12064;50.890;5.424;2023-03-13T01:32:34;16.60;82.60
23769;DHT22;12064;50.890;5.424;2023-03-13T01:41:27;16.60;82.70
23769;DHT22;12064;50.890;5.424;2023-03-13T01:50:17;16.60;82.80
23769;DHT22;12064;50.890;5.424;2023-03-13T01:59:10;16.60;82.90
23769;DHT22;12064;50.890;5.424;2023-03-13T02:08:07;16.60;83.00
23769;DHT22;12064;50.890;5.424;2023-03-13T02:17:01;16.60;83.00
23769;DHT22;12064;50.890;5.424;2023-03-13T02:25:53;16.60;83.00
23769;DHT22;12064;50.890;5.424;2023-03-13T02:34:46;16.60;83.30
23769;DHT22;12064;50.890;5.424;2023-03-13T02:43:38;16.60;83.20
23769;DHT22;12064;50.890;5.424;2023-03-13T02:53:16;16.60;83.40
23769;DHT22;12064;50.890;5.424;2023-03-13T03:01:41;16.60;83.30
23769;DHT22;12064;50.890;5.424;2023-03-13T03:10:35;16.60;83.50
23769;DHT22;12064;50.890;5.424;2023-03-13T03:19:26;16.60;83.60
23769;DHT22;12064;50.890;5.424;2023-03-13T03:28:17;16.60;83.80
23769;DHT22;12064;50.890;5.424;2023-03-13T03:37:07;16.60;83.70
23769;DHT22;12064;50.890;5.424;2023-03-13T03:45:58;16.60;83.70
23769;DHT22;12064;50.890;5.424;2023-03-13T03:54:49;16.70;83.90
23769;DHT22;12064;50.890;5.424;2023-03-13T04:03:40;16.60;84.00
23769;DHT22;12064;50.890;5.424;2023-03-13T04:12:30;16.70;84.00
23769;DHT22;12064;50.890;5.424;2023-03-13T04:21:21;16.60;84.00
23769;DHT22;12064;50.890;5.424;2023-03-13T04:30:12;16.70;84.10
23769;DHT22;12064;50.890;5.424;2023-03-13T04:39:03;16.60;84.20
23769;DHT22;12064;50.890;5.424;2023-03-13T04:47:53;16.70;84.20
23769;DHT22;12064;50.890;5.424;2023-03-13T04:56:44;16.60;84.40
23769;DHT22;12064;50.890;5.424;2023-03-13T05:05:35;16.70;84.30
23769;DHT22;12064;50.890;5.424;2023-03-13T05:14:26;16.70;85.00
23769;DHT22;12064;50.890;5.424;2023-03-13T05:23:16;16.70;84.20
23769;DHT22;12064;50.890;5.424;2023-03-13T05:32:07;16.70;84.30
23769;DHT22;12064;50.890;5.424;2023-03-13T05:40:58;16.70;84.10
23769;DHT22;12064;50.890;5.424;2023-03-13T05:49:48;16.70;84.20
23769;DHT22;12064;50.890;5.424;2023-03-13T05:58:39;16.70;84.20
23769;DHT22;12064;50.890;5.424;2023-03-13T06:07:30;16.80;84.20
23769;DHT22;12064;50.890;5.424;2023-03-13T06:16:21;16.70;84.60
23769;DHT22;12064;50.890;5.424;2023-03-13T06:25:11;16.80;84.70
23769;DHT22;12064;50.890;5.424;2023-03-13T06:34:02;16.70;84.50
23769;DHT22;12064;50.890;5.424;2023-03-13T06:42:53;16.80;84.50
23769;DHT22;12064;50.890;5.424;2023-03-13T06:51:43;16.80;84.30
23769;DHT22;12064;50.890;5.424;2023-03-13T07:00:34;16.80;85.20
23769;DHT22;12064;50.890;5.424;2023-03-13T07:09:25;16.80;84.40
23769;DHT22;12064;50.890;5.424;2023-03-13T07:18:16;16.80;84.40
23769;DHT22;12064;50.890;5.424;2023-03-13T07:27:06;16.80;84.30
23769;DHT22;12064;50.890;5.424;2023-03-13T07:35:57;16.80;84.20
23769;DHT22;12064;50.890;5.424;2023-03-13T07:44:48;16.80;83.80
23769;DHT22;12064;50.890;5.424;2023-03-13T07:53:38;16.80;83.50
23769;DHT22;12064;50.890;5.424;2023-03-13T08:02:29;16.90;83.50
23769;DHT22;12064;50.890;5.424;2023-03-13T08:11:22;17.00;83.50
23769;DHT22;12064;50.890;5.424;2023-03-13T08:20:14;17.00;83.80
23769;DHT22;12064;50.890;5.424;2023-03-13T08:29:08;17.10;84.10
23769;DHT22;12064;50.890;5.424;2023-03-13T08:37:58;17.00;84.10
23769;DHT22;12064;50.890;5.424;2023-03-13T08:46:49;17.10;85.20
23769;DHT22;12064;50.890;5.424;2023-03-13T08:55:40;17.20;85.20
23769;DHT22;12064;50.890;5.424;2023-03-13T09:04:30;17.20;85.20
23769;DHT22;12064;50.890;5.424;2023-03-13T09:13:21;17.40;85.10
23769;DHT22;12064;50.890;5.424;2023-03-13T09:22:11;17.50;85.00
23769;DHT22;12064;50.890;5.424;2023-03-13T09:31:31;17.60;84.90
23769;DHT22;12064;50.890;5.424;2023-03-13T09:40:22;17.70;84.70
23769;DHT22;12064;50.890;5.424;2023-03-13T09:49:51;17.80;84.80
23769;DHT22;12064;50.890;5.424;2023-03-13T09:59:12;17.70;85.00
23769;DHT22;12064;50.890;5.424;2023-03-13T10:08:15;17.70;85.50
23769;DHT22;12064;50.890;5.424;2023-03-13T10:26:27;17.70;85.80
23769;DHT22;12064;50.890;5.424;2023-03-13T10:35:40;17.80;85.60
23769;DHT22;12064;50.890;5.424;2023-03-13T10:44:32;17.70;86.20
23769;DHT22;12064;50.890;5.424;2023-03-13T11:11:19;17.60;86.00
23769;DHT22;12064;50.890;5.424;2023-03-13T11:20:26;17.70;85.90
23769;DHT22;12064;50.890;5.424;2023-03-13T11:38:36;17.70;85.80
23769;DHT22;12064;50.890;5.424;2023-03-13T11:47:45;17.70;85.40
23769;DHT22;12064;50.890;5.424;2023-03-13T11:56:40;17.80;85.30
23769;DHT22;12064;50.890;5.424;2023-03-13T12:05:52;17.80;85.50
23769;DHT22;12064;50.890;5.424;2023-03-13T12:14:55;17.80;85.30
23769;DHT22;12064;50.890;5.424;2023-03-13T12:51:35;17.80;85.60
23769;DHT22;12064;50.890;5.424;2023-03-13T13:00:30;17.80;85.60
23769;DHT22;12064;50.890;5.424;2023-03-13T13:18:36;17.80;85.60
23769;DHT22;12064;50.890;5.424;2023-03-13T13:36:27;17.80;85.50
23769;DHT22;12064;50.890;5.424;2023-03-13T14:03:38;17.80;85.50
23769;DHT22;12064;50.890;5.424;2023-03-13T14:12:34;17.80;85.40
23769;DHT22;12064;50.890;5.424;2023-03-13T14:21:25;17.80;85.30
23769;DHT22;12064;50.890;5.424;2023-03-13T14:30:18;17.80;85.20
23769;DHT22;12064;50.890;5.424;2023-03-13T14:39:17;17.80;85.20
23769;DHT22;12064;50.890;5.424;2023-03-13T14:48:31;17.90;85.20
23769;DHT22;12064;50.890;5.424;2023-03-13T14:57:24;17.90;85.00
23769;DHT22;12064;50.890;5.424;2023-03-13T15:06:18;18.00;85.00
23769;DHT22;12064;50.890;5.424;2023-03-13T15:15:10;18.10;84.60
23769;DHT22;12064;50.890;5.424;2023-03-13T15:24:09;18.10;84.30
23769;DHT22;12064;50.890;5.424;2023-03-13T15:33:01;18.10;85.00
23769;DHT22;12064;50.890;5.424;2023-03-13T15:41:52;18.10;84.80
23769;DHT22;12064;50.890;5.424;2023-03-13T15:50:43;18.20;84.50
23769;DHT22;12064;50.890;5.424;2023-03-13T15:59:34;18.10;84.60
23769;DHT22;12064;50.890;5.424;2023-03-13T16:08:27;18.10;84.30
23769;DHT22;12064;50.890;5.424;2023-03-13T16:17:20;18.20;84.20
23769;DHT22;12064;50.890;5.424;2023-03-13T16:26:24;18.10;84.00
23769;DHT22;12064;50.890;5.424;2023-03-13T16:35:15;18.10;84.00
23769;DHT22;12064;50.890;5.424;2023-03-13T16:44:06;18.20;84.70
23769;DHT22;12064;50.890;5.424;2023-03-13T16:52:56;18.10;83.70
23769;DHT22;12064;50.890;5.424;2023-03-13T17:01:47;18.10;83.70
23769;DHT22;12064;50.890;5.424;2023-03-13T17:10:38;18.10;83.60
23769;DHT22;12064;50.890;5.424;2023-03-13T17:19:28;18.10;83.50
23769;DHT22;12064;50.890;5.424;2023-03-13T17:28:20;18.10;83.40
23769;DHT22;12064;50.890;5.424;2023-03-13T17:37:16;18.10;83.20
23769;DHT22;12064;50.890;5.424;2023-03-13T17:55:09;18.20;82.70
23769;DHT22;12064;50.890;5.424;2023-03-13T18:04:01;18.30;82.40
23769;DHT22;12064;50.890;5.424;2023-03-13T18:12:52;18.40;82.00
23769;DHT22;12064;50.890;5.424;2023-03-13T18:21:45;18.40;81.90
23769;DHT22;12064;50.890;5.424;2023-03-13T18:30:36;18.60;81.00
23769;DHT22;12064;50.890;5.424;2023-03-13T18:39:30;18.60;81.00
23769;DHT22;12064;50.890;5.424;2023-03-13T18:48:21;18.60;80.80
23769;DHT22;12064;50.890;5.424;2023-03-13T18:57:17;18.70;80.70
23769;DHT22;12064;50.890;5.424;2023-03-13T19:06:24;18.60;80.80
23769;DHT22;12064;50.890;5.424;2023-03-13T19:15:15;18.60;80.60
23769;DHT22;12064;50.890;5.424;2023-03-13T19:24:06;18.70;80.40
23769;DHT22;12064;50.890;5.424;2023-03-13T19:32:57;18.70;80.60
23769;DHT22;12064;50.890;5.424;2023-03-13T19:41:47;18.60;80.60
23769;DHT22;12064;50.890;5.424;2023-03-13T19:50:38;18.60;80.60
23769;DHT22;12064;50.890;5.424;2023-03-13T19:59:29;18.60;80.60
23769;DHT22;12064;50.890;5.424;2023-03-13T20:08:21;18.60;80.80
23769;DHT22;12064;50.890;5.424;2023-03-13T20:17:12;18.50;80.80
23769;DHT22;12064;50.890;5.424;2023-03-13T20:26:05;18.50;81.00
23769;DHT22;12064;50.890;5.424;2023-03-13T20:34:59;18.40;81.00
23769;DHT22;12064;50.890;5.424;2023-03-13T20:43:49;18.40;81.20
23769;DHT22;12064;50.890;5.424;2023-03-13T20:52:41;18.40;81.30
23769;DHT22;12064;50.890;5.424;2023-03-13T21:01:32;18.40;81.30
23769;DHT22;12064;50.890;5.424;2023-03-13T21:10:23;18.40;81.30
23769;DHT22;12064;50.890;5.424;2023-03-13T21:19:14;18.30;81.50
23769;DHT22;12064;50.890;5.424;2023-03-13T21:28:04;18.30;81.50
23769;DHT22;12064;50.890;5.424;2023-03-13T21:36:56;18.30;81.60
23769;DHT22;12064;50.890;5.424;2023-03-13T21:45:47;18.20;81.60
23769;DHT22;12064;50.890;5.424;2023-03-13T21:54:37;18.30;82.00
23769;DHT22;12064;50.890;5.424;2023-03-13T22:03:29;18.30;82.10
23769;DHT22;12064;50.890;5.424;2023-03-13T22:12:21;18.30;82.00
23769;DHT22;12064;50.890;5.424;2023-03-13T22:21:13;18.30;82.30
23769;DHT22;12064;50.890;5.424;2023-03-13T22:30:05;18.20;82.40
23769;DHT22;12064;50.890;5.424;2023-03-13T22:38:55;18.20;82.30
23769;DHT22;12064;50.890;5.424;2023-03-13T22:47:46;18.20;82.20
23769;DHT22;12064;50.890;5.424;2023-03-13T22:56:37;18.20;82.20
23769;DHT22;12064;50.890;5.424;2023-03-13T23:05:28;18.20;82.30
23769;DHT22;12064;50.890;5.424;2023-03-13T23:14:18;18.20;82.20
23769;DHT22;12064;50.890;5.424;2023-03-13T23:23:09;18.20;82.30
23769;DHT22;12064;50.890;5.424;2023-03-13T23:32:00;18.20;82.30
23769;DHT22;12064;50.890;5.424;2023-03-13T23:40:51;18.20;82.40
23769;DHT22;12064;50.890;5.424;2023-03-13T23:49:42;18.20;82.40
23769;DHT22;12064;50.890;5.424;2023-03-13T23:58:33;18.20;82.60
